createdAt,value
2022-11-20T00:01:31.570Z,7.80
2022-11-20T00:05:34.122Z,7.47
2022-11-20T00:09:35.783Z,7.57
2022-11-20T00:13:37.844Z,8.70
2022-11-20T00:17:39.526Z,8.05
2022-11-20T00:21:41.167Z,7.03
2022-11-20T00:25:42.990Z,7.50
2022-11-20T00:29:44.737Z,7.47
2022-11-20T00:33:47.117Z,7.72
2022-11-20T00:37:48.820Z,7.35
2022-11-20T00:41:51.221Z,8.00
2022-11-20T00:46:00.671Z,8.20
2022-11-20T00:50:02.457Z,8.60
2022-11-20T00:54:04.352Z,9.95
2022-11-20T00:58:10.238Z,8.75
2022-11-20T01:02:16.536Z,8.55
2022-11-20T01:06:19.811Z,6.65
2022-11-20T01:10:21.675Z,6.03
2022-11-20T01:14:23.321Z,6.88
2022-11-20T01:18:24.988Z,7.30
2022-11-20T01:22:26.721Z,6.85
2022-11-20T01:26:31.305Z,7.45
2022-11-20T01:30:32.979Z,7.53
2022-11-20T01:34:34.666Z,6.78
2022-11-20T01:38:36.763Z,8.70
2022-11-20T01:42:57.037Z,6.57
2022-11-20T01:47:06.122Z,7.60
2022-11-20T01:51:20.261Z,7.40
2022-11-20T01:55:32.330Z,8.30
2022-11-20T01:59:35.053Z,8.70
2022-11-20T02:03:37.173Z,8.57
2022-11-20T02:07:39.161Z,9.57
2022-11-20T02:11:40.941Z,8.60
2022-11-20T02:15:43.441Z,7.35
2022-11-20T02:19:45.134Z,6.93
2022-11-20T02:24:10.867Z,7.28
2022-11-20T02:28:12.544Z,6.55
2022-11-20T02:32:28.808Z,7.43
2022-11-20T02:36:33.968Z,6.88
2022-11-20T02:40:35.622Z,6.20
2022-11-20T02:44:37.256Z,6.93
2022-11-20T02:48:38.938Z,7.07
2022-11-20T02:52:40.643Z,7.03
2022-11-20T02:56:42.329Z,6.57
2022-11-20T03:00:44.038Z,6.65
2022-11-20T03:04:45.732Z,7.35
2022-11-20T03:08:47.398Z,7.00
2022-11-20T03:12:54.293Z,6.78
2022-11-20T03:16:57.108Z,5.93
2022-11-20T03:21:00.210Z,6.43
2022-11-20T03:25:01.893Z,7.00
2022-11-20T03:29:05.582Z,7.22
2022-11-20T03:33:07.345Z,6.38
2022-11-20T03:37:09.022Z,7.70
2022-11-20T03:41:13.408Z,6.75
2022-11-20T03:45:17.451Z,7.28
2022-11-20T03:49:19.393Z,7.30
2022-11-20T03:53:21.671Z,7.22
2022-11-20T03:57:23.357Z,7.45
2022-11-20T04:01:27.663Z,7.47
2022-11-20T04:05:29.483Z,7.00
2022-11-20T04:09:31.194Z,6.82
2022-11-20T04:13:32.938Z,7.53
2022-11-20T04:17:34.675Z,8.38
2022-11-20T04:21:36.409Z,7.35
2022-11-20T04:25:38.135Z,6.40
2022-11-20T04:29:39.805Z,7.47
2022-11-20T04:33:42.033Z,7.30
2022-11-20T04:37:43.694Z,7.10
2022-11-20T04:41:45.433Z,6.65
2022-11-20T04:45:55.161Z,7.20
2022-11-20T04:49:57.048Z,7.30
2022-11-20T04:53:58.799Z,7.72
2022-11-20T04:58:00.443Z,6.78
2022-11-20T05:02:02.444Z,7.43
2022-11-20T05:06:04.985Z,7.65
2022-11-20T05:10:07.247Z,7.95
2022-11-20T05:14:08.967Z,6.47
2022-11-20T05:18:10.793Z,7.32
2022-11-20T05:22:12.493Z,7.43
2022-11-20T05:26:20.014Z,7.93
2022-11-20T05:30:21.805Z,7.25
2022-11-20T05:34:23.519Z,6.90
2022-11-20T05:38:25.140Z,7.18
2022-11-20T05:42:32.750Z,8.25
2022-11-20T05:46:34.495Z,7.25
2022-11-20T05:50:36.518Z,6.43
2022-11-20T05:54:38.157Z,6.80
2022-11-20T05:58:40.554Z,7.53
2022-11-20T06:02:42.258Z,6.68
2022-11-20T06:06:43.996Z,7.00
2022-11-20T06:10:45.685Z,6.38
2022-11-20T06:14:47.373Z,8.18
2022-11-20T06:18:49.051Z,8.02
2022-11-20T06:22:50.708Z,8.30
2022-11-20T06:26:52.433Z,6.80
2022-11-20T06:30:54.113Z,6.80
2022-11-20T06:34:55.752Z,8.35
2022-11-20T06:38:57.452Z,7.60
2022-11-20T06:42:59.086Z,7.88
2022-11-20T06:47:00.778Z,8.32
2022-11-20T06:51:08.141Z,8.73
2022-11-20T06:55:09.846Z,8.80
2022-11-20T06:59:11.596Z,7.30
2022-11-20T07:03:13.683Z,8.02
2022-11-20T07:07:15.489Z,8.25
2022-11-20T07:11:17.186Z,8.23
2022-11-20T07:15:20.716Z,7.13
2022-11-20T07:19:22.604Z,9.23
2022-11-20T07:23:24.536Z,8.25
2022-11-20T07:27:26.248Z,7.63
2022-11-20T07:31:27.890Z,8.30
2022-11-20T07:35:29.562Z,7.90
2022-11-20T07:39:31.301Z,8.02
2022-11-20T07:43:35.880Z,8.63
2022-11-20T07:47:41.518Z,7.88
2022-11-20T07:51:43.211Z,9.00
2022-11-20T07:55:44.856Z,8.27
2022-11-20T07:59:47.143Z,8.65
2022-11-20T08:03:48.857Z,7.80
2022-11-20T08:07:50.551Z,8.43
2022-11-20T08:12:10.852Z,8.45
2022-11-20T08:16:12.500Z,8.32
2022-11-20T08:20:14.283Z,8.27
2022-11-20T08:24:15.984Z,9.57
2022-11-20T08:28:21.296Z,8.20
2022-11-20T08:32:23.641Z,9.32
2022-11-20T08:36:26.032Z,8.65
2022-11-20T08:40:27.837Z,8.82
2022-11-20T08:44:29.518Z,9.07
2022-11-20T08:48:31.190Z,8.90
2022-11-20T08:52:36.990Z,8.63
2022-11-20T08:56:41.337Z,8.90
2022-11-20T09:00:43.011Z,8.18
2022-11-20T09:04:44.649Z,9.18
2022-11-20T09:08:46.505Z,9.15
2022-11-20T09:12:50.316Z,8.95
2022-11-20T09:16:51.956Z,9.20
2022-11-20T09:20:58.185Z,8.98
2022-11-20T09:24:59.999Z,9.73
2022-11-20T09:29:01.668Z,10.70
2022-11-20T09:33:05.462Z,9.13
2022-11-20T09:37:07.920Z,9.07
2022-11-20T09:41:24.506Z,9.32
2022-11-20T09:45:39.107Z,10.23
2022-11-20T09:49:43.873Z,8.77
2022-11-20T09:54:01.474Z,10.68
2022-11-20T09:58:08.554Z,10.43
2022-11-20T10:02:28.248Z,9.82
2022-11-20T10:06:31.483Z,11.15
2022-11-20T10:10:52.335Z,10.30
2022-11-20T10:15:01.376Z,10.23
2022-11-20T10:19:36.463Z,10.32
2022-11-20T10:23:41.072Z,10.25
2022-11-20T10:28:04.828Z,10.40
2022-11-20T10:32:19.567Z,10.07
2022-11-20T10:36:45.316Z,10.68
2022-11-20T10:40:54.293Z,10.75
2022-11-20T10:45:06.836Z,10.60
2022-11-20T10:49:21.366Z,11.48
2022-11-20T10:53:36.802Z,11.30
2022-11-20T10:57:51.927Z,11.98
2022-11-20T11:01:53.744Z,11.10
2022-11-20T11:06:04.920Z,12.18
2022-11-20T11:10:22.386Z,11.82
2022-11-20T11:14:25.673Z,11.45
2022-11-20T11:18:28.881Z,11.40
2022-11-20T11:22:32.676Z,11.52
2022-11-20T11:26:34.398Z,11.18
2022-11-20T11:30:44.375Z,11.60
2022-11-20T11:34:46.225Z,11.73
2022-11-20T11:38:53.110Z,12.43
2022-11-20T11:43:05.489Z,10.65
2022-11-20T11:47:12.784Z,12.23
2022-11-20T11:51:21.808Z,12.02
2022-11-20T11:55:39.272Z,12.55
2022-11-20T12:00:09.295Z,12.73
2022-11-20T12:04:44.900Z,12.07
2022-11-20T12:09:05.837Z,13.60
2022-11-20T12:13:27.009Z,13.50
2022-11-20T12:17:28.801Z,12.60
2022-11-20T12:21:59.973Z,12.88
2022-11-20T12:26:15.138Z,13.93
2022-11-20T12:30:22.346Z,13.55
2022-11-20T12:34:29.661Z,13.55
2022-11-20T12:38:37.173Z,13.50
2022-11-20T12:43:35.048Z,13.87
2022-11-20T12:47:52.031Z,12.27
2022-11-20T12:51:53.696Z,11.88
2022-11-20T12:56:20.348Z,13.23
2022-11-20T13:00:26.269Z,13.05
2022-11-20T13:04:27.983Z,12.48
2022-11-20T13:08:35.463Z,13.63
2022-11-20T13:12:45.644Z,14.03
2022-11-20T13:16:56.154Z,13.07
2022-11-20T13:20:57.934Z,14.02
2022-11-20T13:24:59.664Z,13.57
2022-11-20T13:29:10.507Z,14.10
2022-11-20T13:33:24.688Z,13.80
2022-11-20T13:37:35.781Z,14.02
2022-11-20T13:41:42.081Z,14.82
2022-11-20T13:45:54.965Z,14.40
2022-11-20T13:50:00.265Z,13.80
2022-11-20T13:54:26.324Z,15.75
2022-11-20T13:58:37.298Z,13.32
2022-11-20T14:02:39.145Z,15.07
2022-11-20T14:06:46.863Z,15.00
2022-11-20T14:10:48.621Z,14.40
2022-11-20T14:14:55.565Z,15.57
2022-11-20T14:18:59.135Z,15.85
2022-11-20T14:23:00.865Z,14.85
2022-11-20T14:27:03.146Z,15.07
2022-11-20T14:31:04.898Z,13.60
2022-11-20T14:35:14.868Z,14.30
2022-11-20T14:39:26.633Z,15.77
2022-11-20T14:43:29.360Z,14.82
2022-11-20T14:47:32.223Z,16.25
2022-11-20T14:51:44.289Z,15.40
2022-11-20T14:56:02.380Z,14.05
2022-11-20T15:00:16.169Z,14.57
2022-11-20T15:04:17.891Z,16.05
2022-11-20T15:08:19.722Z,15.18
2022-11-20T15:12:21.606Z,15.45
2022-11-20T15:16:24.986Z,14.45
2022-11-20T15:20:31.012Z,16.75
2022-11-20T15:24:33.190Z,15.93
2022-11-20T15:28:43.776Z,15.95
2022-11-20T15:32:47.182Z,14.57
2022-11-20T15:36:48.890Z,14.68
2022-11-20T15:40:50.834Z,15.10
2022-11-20T15:44:52.567Z,15.55
2022-11-20T15:48:58.402Z,15.07
2022-11-20T15:53:00.192Z,12.93
2022-11-20T15:57:03.315Z,16.75
2022-11-20T16:01:05.229Z,19.52
2022-11-20T16:05:12.615Z,14.77
2022-11-20T16:09:14.276Z,13.65
2022-11-20T16:13:37.167Z,13.18
2022-11-20T16:17:47.697Z,13.07
2022-11-20T16:21:49.375Z,13.25
2022-11-20T16:25:51.822Z,12.88
2022-11-20T16:29:53.567Z,11.90
2022-11-20T16:34:00.306Z,13.93
2022-11-20T16:38:02.134Z,13.88
2022-11-20T16:42:04.816Z,12.38
2022-11-20T16:46:06.559Z,12.20
2022-11-20T16:50:09.012Z,11.20
2022-11-20T16:54:13.049Z,11.02
2022-11-20T16:58:16.949Z,11.75
2022-11-20T17:02:18.650Z,13.00
2022-11-20T17:06:22.188Z,11.32
2022-11-20T17:10:24.124Z,11.13
2022-11-20T17:14:26.261Z,11.88
2022-11-20T17:18:28.516Z,11.18
2022-11-20T17:22:32.050Z,12.15
2022-11-20T17:26:35.194Z,10.35
2022-11-20T17:30:36.893Z,10.32
2022-11-20T17:34:38.590Z,10.80
2022-11-20T17:38:40.697Z,10.73
2022-11-20T17:42:42.384Z,10.27
2022-11-20T17:46:44.061Z,10.68
2022-11-20T17:50:45.764Z,10.43
2022-11-20T17:54:47.438Z,10.90
2022-11-20T17:58:49.141Z,11.02
2022-11-20T18:02:50.924Z,11.02
2022-11-20T18:06:52.609Z,10.98
2022-11-20T18:10:54.247Z,10.55
2022-11-20T18:14:55.935Z,10.90
2022-11-20T18:18:58.681Z,10.70
2022-11-20T18:23:00.401Z,13.20
2022-11-20T18:27:02.280Z,11.23
2022-11-20T18:31:08.469Z,12.23
2022-11-20T18:35:10.239Z,10.10
2022-11-20T18:39:13.675Z,10.88
2022-11-20T18:43:34.083Z,11.75
2022-11-20T18:47:38.136Z,10.90
2022-11-20T18:51:41.132Z,11.05
2022-11-20T18:55:42.837Z,11.32
2022-11-20T18:59:45.051Z,12.18
2022-11-20T19:03:47.297Z,12.25
2022-11-20T19:07:49.034Z,10.40
2022-11-20T19:11:51.032Z,11.20
2022-11-20T19:15:52.741Z,12.30
2022-11-20T19:19:55.265Z,11.68
2022-11-20T19:23:59.139Z,12.60
2022-11-20T19:28:00.982Z,14.32
2022-11-20T19:32:04.568Z,12.77
2022-11-20T19:36:13.723Z,13.75
2022-11-20T19:40:15.505Z,13.13
2022-11-20T19:44:18.351Z,11.98
2022-11-20T19:48:20.048Z,11.23
2022-11-20T19:52:21.911Z,11.57
2022-11-20T19:56:24.273Z,11.85
2022-11-20T20:00:31.193Z,10.23
2022-11-20T20:04:34.253Z,12.55
2022-11-20T20:08:37.293Z,11.73
2022-11-20T20:12:38.968Z,11.85
2022-11-20T20:16:41.797Z,9.88
2022-11-20T20:20:43.550Z,12.98
2022-11-20T20:24:45.264Z,12.65
2022-11-20T20:28:46.964Z,10.80
2022-11-20T20:32:54.818Z,11.73
2022-11-20T20:36:57.946Z,12.57
2022-11-20T20:40:59.624Z,12.00
2022-11-20T20:45:07.241Z,12.10
2022-11-20T20:49:09.759Z,11.47
2022-11-20T20:53:11.540Z,12.25
2022-11-20T20:57:13.184Z,13.30
2022-11-20T21:01:16.730Z,11.88
2022-11-20T21:05:18.534Z,12.43
2022-11-20T21:09:21.295Z,11.57
2022-11-20T21:13:24.039Z,12.55
2022-11-20T21:17:26.934Z,11.00
2022-11-20T21:21:47.290Z,11.40
2022-11-20T21:25:49.028Z,12.48
2022-11-20T21:29:50.709Z,12.85
2022-11-20T21:33:54.383Z,12.98
2022-11-20T21:37:56.137Z,11.73
2022-11-20T21:41:57.804Z,12.57
2022-11-20T21:46:11.419Z,14.98
2022-11-20T21:50:13.069Z,13.32
2022-11-20T21:54:17.761Z,12.57
2022-11-20T21:58:19.454Z,13.15
2022-11-20T22:02:21.129Z,11.98
2022-11-20T22:06:24.369Z,13.85
2022-11-20T22:10:28.028Z,14.35
2022-11-20T22:14:29.817Z,12.48
2022-11-20T22:18:31.584Z,13.10
2022-11-20T22:22:33.218Z,14.65
2022-11-20T22:26:40.263Z,12.93
2022-11-20T22:30:42.512Z,13.63
2022-11-20T22:34:44.229Z,15.55
2022-11-20T22:38:46.630Z,14.48
2022-11-20T22:42:48.480Z,13.95
2022-11-20T22:46:50.215Z,15.82
2022-11-20T22:50:52.298Z,14.15
2022-11-20T22:54:54.012Z,16.88
2022-11-20T22:58:56.246Z,15.80
2022-11-20T23:02:58.002Z,14.00
2022-11-20T23:06:59.833Z,15.10
2022-11-20T23:11:07.851Z,13.98
2022-11-20T23:15:10.301Z,14.55
2022-11-20T23:19:14.575Z,14.88
2022-11-20T23:23:16.275Z,13.73
2022-11-20T23:27:19.771Z,14.95
2022-11-20T23:31:22.201Z,15.15
2022-11-20T23:35:24.058Z,16.50
2022-11-20T23:39:25.834Z,14.07
2022-11-20T23:43:27.845Z,16.58
2022-11-20T23:47:29.633Z,15.48
2022-11-20T23:51:31.319Z,17.35
2022-11-20T23:55:33.357Z,16.10
2022-11-20T23:59:35.031Z,17.13
